createdAt,value
2023-05-08T00:02:25.494Z,87.86
2023-05-08T00:04:55.368Z,87.87
2023-05-08T00:07:23.181Z,87.96
2023-05-08T00:09:52.633Z,88.08
2023-05-08T00:12:22.466Z,88.07
2023-05-08T00:14:50.214Z,88.00
2023-05-08T00:17:19.995Z,88.22
2023-05-08T00:19:47.641Z,88.25
2023-05-08T00:22:16.254Z,88.46
2023-05-08T00:24:43.901Z,88.40
2023-05-08T00:27:12.103Z,88.33
2023-05-08T00:29:40.164Z,88.39
2023-05-08T00:32:09.617Z,88.41
2023-05-08T00:34:38.182Z,88.51
2023-05-08T00:37:05.956Z,88.48
2023-05-08T00:39:34.000Z,88.43
2023-05-08T00:42:01.665Z,88.44
2023-05-08T00:44:31.602Z,88.42
2023-05-08T00:46:59.438Z,88.51
2023-05-08T00:49:27.324Z,88.51
2023-05-08T00:51:59.596Z,88.46
2023-05-08T00:54:29.565Z,88.54
2023-05-08T00:56:57.500Z,88.63
2023-05-08T00:59:27.248Z,88.63
2023-05-08T01:01:55.203Z,88.71
2023-05-08T01:04:25.572Z,88.66
2023-05-08T01:06:53.220Z,88.77
2023-05-08T01:09:20.878Z,88.88
2023-05-08T01:12:08.973Z,88.93
2023-05-08T01:15:06.007Z,89.22
2023-05-08T01:18:03.672Z,89.07
2023-05-08T01:20:45.321Z,89.09
2023-05-08T01:23:58.177Z,89.19
2023-05-08T01:27:06.775Z,89.28
2023-05-08T01:30:16.090Z,89.11
2023-05-08T01:33:00.870Z,89.11
2023-05-08T01:35:55.314Z,89.22
2023-05-08T01:38:33.537Z,89.25
2023-05-08T01:41:16.036Z,89.22
2023-05-08T01:44:04.229Z,89.17
2023-05-08T01:46:35.292Z,89.15
2023-05-08T01:49:14.550Z,89.18
2023-05-08T01:51:48.727Z,89.14
2023-05-08T01:54:22.001Z,89.05
2023-05-08T01:56:52.895Z,89.07
2023-05-08T01:59:23.481Z,89.15
2023-05-08T02:01:57.083Z,89.09
2023-05-08T02:04:27.474Z,89.08
2023-05-08T02:06:56.687Z,89.11
2023-05-08T02:09:25.822Z,89.17
2023-05-08T02:11:55.297Z,89.15
2023-05-08T02:14:25.714Z,89.10
2023-05-08T02:16:56.595Z,89.13
2023-05-08T02:19:26.955Z,89.12
2023-05-08T02:21:57.173Z,89.10
2023-05-08T02:24:26.367Z,89.12
2023-05-08T02:26:55.879Z,89.11
2023-05-08T02:29:24.099Z,89.16
2023-05-08T02:31:53.861Z,89.32
2023-05-08T02:34:24.159Z,89.34
2023-05-08T02:36:53.834Z,89.36
2023-05-08T02:39:25.905Z,89.36
2023-05-08T02:41:53.804Z,89.43
2023-05-08T02:44:22.164Z,89.37
2023-05-08T02:46:57.813Z,89.39
2023-05-08T02:49:49.719Z,89.35
2023-05-08T02:52:31.674Z,89.33
2023-05-08T02:55:23.286Z,89.37
2023-05-08T02:58:08.665Z,89.48
2023-05-08T03:00:50.835Z,89.44
2023-05-08T03:03:29.819Z,89.44
2023-05-08T03:06:01.069Z,89.65
2023-05-08T03:08:33.070Z,89.65
2023-05-08T03:11:05.918Z,89.60
2023-05-08T03:13:35.495Z,89.67
2023-05-08T03:16:06.503Z,89.76
2023-05-08T03:18:42.778Z,89.86
2023-05-08T03:21:13.886Z,89.84
2023-05-08T03:23:43.940Z,89.95
2023-05-08T03:26:15.799Z,89.92
2023-05-08T03:28:44.090Z,90.00
2023-05-08T03:31:13.204Z,90.10
2023-05-08T03:33:44.323Z,90.17
2023-05-08T03:36:13.156Z,90.17
2023-05-08T03:38:41.124Z,90.42
2023-05-08T03:41:09.109Z,90.50
2023-05-08T03:43:37.446Z,90.49
2023-05-08T03:46:09.185Z,90.45
2023-05-08T03:48:38.515Z,90.59
2023-05-08T03:51:07.044Z,90.57
2023-05-08T03:53:36.583Z,90.73
2023-05-08T03:56:04.833Z,90.74
2023-05-08T03:59:09.564Z,90.87
2023-05-08T04:01:48.566Z,90.93
2023-05-08T04:04:27.347Z,91.01
2023-05-08T04:07:34.376Z,91.10
2023-05-08T04:10:07.319Z,91.12
2023-05-08T04:13:04.263Z,91.36
2023-05-08T04:15:41.342Z,91.12
2023-05-08T04:18:13.353Z,91.25
2023-05-08T04:20:44.537Z,92.10
2023-05-08T04:23:18.138Z,91.24
2023-05-08T04:25:51.619Z,90.67
2023-05-08T04:28:21.718Z,90.24
2023-05-08T04:30:51.408Z,90.00
2023-05-08T04:33:19.158Z,89.87
2023-05-08T04:35:47.512Z,90.07
2023-05-08T04:38:15.283Z,90.20
2023-05-08T04:40:44.802Z,90.32
2023-05-08T04:43:12.775Z,90.37
2023-05-08T04:45:40.988Z,90.29
2023-05-08T04:48:09.971Z,90.19
2023-05-08T04:50:37.832Z,90.08
2023-05-08T04:53:05.926Z,90.18
2023-05-08T04:55:33.609Z,90.16
2023-05-08T04:58:03.090Z,90.28
2023-05-08T05:00:34.099Z,90.21
2023-05-08T05:03:01.987Z,90.26
2023-05-08T05:05:29.665Z,90.31
2023-05-08T05:07:57.419Z,90.47
2023-05-08T05:10:25.232Z,90.48
2023-05-08T05:12:52.975Z,90.56
2023-05-08T05:15:20.934Z,90.44
2023-05-08T05:17:48.742Z,90.42
2023-05-08T05:20:16.649Z,90.39
2023-05-08T05:22:44.242Z,90.39
2023-05-08T05:25:12.462Z,90.21
2023-05-08T05:27:40.833Z,90.16
2023-05-08T05:30:09.250Z,90.07
2023-05-08T05:32:37.660Z,90.00
2023-05-08T05:35:06.495Z,89.76
2023-05-08T05:37:34.010Z,89.76
2023-05-08T05:40:02.807Z,89.73
2023-05-08T05:42:32.409Z,89.53
2023-05-08T05:45:02.954Z,89.48
2023-05-08T05:47:31.190Z,89.39
2023-05-08T05:49:58.630Z,89.35
2023-05-08T05:52:26.570Z,89.20
2023-05-08T05:54:54.422Z,89.11
2023-05-08T05:57:22.255Z,88.92
2023-05-08T05:59:50.004Z,88.78
2023-05-08T06:02:19.377Z,88.78
2023-05-08T06:04:49.386Z,88.69
2023-05-08T06:07:16.822Z,88.40
2023-05-08T06:09:44.909Z,88.36
2023-05-08T06:12:12.586Z,88.20
2023-05-08T06:14:40.162Z,88.18
2023-05-08T06:17:08.190Z,88.13
2023-05-08T06:19:37.207Z,88.27
2023-05-08T06:24:54.106Z,89.52
2023-05-08T06:27:22.541Z,90.07
2023-05-08T06:29:54.003Z,90.63
2023-05-08T06:32:22.004Z,90.89
2023-05-08T06:34:54.264Z,90.78
2023-05-08T06:37:28.233Z,91.35
2023-05-08T06:40:10.358Z,91.66
2023-05-08T06:42:26.799Z,92.86
2023-05-08T06:44:54.559Z,93.20
2023-05-08T06:47:22.374Z,93.58
2023-05-08T06:49:50.193Z,93.95
2023-05-08T06:52:18.065Z,94.14
2023-05-08T06:54:45.562Z,94.26
2023-05-08T06:57:14.016Z,94.25
2023-05-08T06:59:41.687Z,94.23
2023-05-08T07:02:10.141Z,94.16
2023-05-08T07:04:37.754Z,94.03
2023-05-08T07:07:06.425Z,93.91
2023-05-08T07:09:34.302Z,94.04
2023-05-08T07:12:02.436Z,93.89
2023-05-08T07:14:30.312Z,94.16
2023-05-08T07:16:58.159Z,94.06
2023-05-08T07:19:25.711Z,93.87
2023-05-08T07:21:53.142Z,94.06
2023-05-08T07:24:20.728Z,94.48
2023-05-08T07:26:48.501Z,95.46
2023-05-08T07:29:16.468Z,95.48
2023-05-08T07:31:45.602Z,95.34
2023-05-08T07:34:13.129Z,94.84
2023-05-08T07:36:40.772Z,94.72
2023-05-08T07:39:08.979Z,95.09
2023-05-08T07:41:38.432Z,94.88
2023-05-08T07:44:06.109Z,95.03
2023-05-08T08:07:31.730Z,70.59
2023-05-08T08:10:00.574Z,74.42
2023-05-08T08:12:28.490Z,70.37
2023-05-08T08:14:56.086Z,72.17
2023-05-08T08:17:24.352Z,67.59
2023-05-08T08:19:53.351Z,69.21
2023-05-08T08:22:21.494Z,70.44
2023-05-08T08:24:54.113Z,68.50
2023-05-08T08:27:21.250Z,65.86
2023-05-08T08:29:50.285Z,65.17
2023-05-08T08:32:18.843Z,65.99
2023-05-08T08:34:46.544Z,62.86
2023-05-08T08:37:14.305Z,61.72
2023-05-08T08:39:44.035Z,62.45
2023-05-08T08:42:11.896Z,62.59
2023-05-08T08:44:40.153Z,62.86
2023-05-08T08:47:13.906Z,62.02
2023-05-08T08:49:47.953Z,63.43
2023-05-08T08:52:37.688Z,63.07
2023-05-08T08:55:09.757Z,64.42
2023-05-08T08:57:42.810Z,64.63
2023-05-08T09:00:12.534Z,64.74
2023-05-08T09:02:40.095Z,64.78
2023-05-08T09:05:09.666Z,66.41
2023-05-08T09:07:39.103Z,66.00
2023-05-08T09:10:07.972Z,66.72
2023-05-08T09:12:35.874Z,66.71
2023-05-08T09:15:04.078Z,64.86
2023-05-08T09:17:32.121Z,66.96
2023-05-08T09:20:00.517Z,68.02
2023-05-08T09:22:28.983Z,63.73
2023-05-08T09:25:02.757Z,61.76
2023-05-08T09:27:32.063Z,62.31
2023-05-08T09:30:06.592Z,60.37
2023-05-08T09:32:37.972Z,61.98
2023-05-08T09:35:07.771Z,58.41
2023-05-08T09:37:42.484Z,54.96
2023-05-08T09:40:22.078Z,55.92
2023-05-08T09:42:50.468Z,56.76
2023-05-08T09:45:34.731Z,53.66
2023-05-08T09:48:02.396Z,54.62
2023-05-08T09:50:31.005Z,52.52
2023-05-08T09:53:00.681Z,51.48
2023-05-08T09:55:30.256Z,52.19
2023-05-08T09:58:00.728Z,53.64
2023-05-08T10:00:39.239Z,51.99
2023-05-08T10:03:09.050Z,51.57
2023-05-08T10:05:36.671Z,50.00
2023-05-08T10:08:22.369Z,49.64
2023-05-08T10:10:51.681Z,48.53
2023-05-08T10:13:19.812Z,50.99
2023-05-08T10:15:52.049Z,49.08
2023-05-08T10:18:23.079Z,49.41
2023-05-08T10:20:52.484Z,49.18
2023-05-08T10:23:20.358Z,50.46
2023-05-08T10:25:55.008Z,51.02
2023-05-08T10:28:42.193Z,49.76
2023-05-08T10:31:14.995Z,50.17
2023-05-08T10:33:46.372Z,48.84
2023-05-08T10:36:17.136Z,49.03
2023-05-08T10:38:45.850Z,49.53
2023-05-08T10:41:16.372Z,49.82
2023-05-08T10:43:44.396Z,48.08
2023-05-08T10:46:24.115Z,49.64
2023-05-08T10:49:00.817Z,49.65
2023-05-08T10:51:49.010Z,49.47
2023-05-08T10:54:51.438Z,49.93
2023-05-08T10:57:19.215Z,50.89
2023-05-08T10:59:47.125Z,49.58
2023-05-08T11:02:16.522Z,49.16
2023-05-08T11:04:44.448Z,48.97
2023-05-08T11:07:11.869Z,48.18
2023-05-08T11:09:48.001Z,48.42
2023-05-08T11:12:30.558Z,46.83
2023-05-08T11:15:09.700Z,47.02
2023-05-08T11:17:41.110Z,47.51
2023-05-08T11:20:09.349Z,47.90
2023-05-08T11:22:37.819Z,48.48
2023-05-08T11:25:12.236Z,47.88
2023-05-08T11:27:55.142Z,45.90
2023-05-08T11:30:39.421Z,45.89
2023-05-08T11:33:13.417Z,45.28
2023-05-08T11:35:54.203Z,46.75
2023-05-08T11:38:35.488Z,47.89
2023-05-08T11:41:10.092Z,46.74
2023-05-08T11:44:08.941Z,47.80
2023-05-08T11:46:50.963Z,46.62
2023-05-08T11:49:24.957Z,47.37
2023-05-08T11:51:57.527Z,46.29
2023-05-08T11:54:28.888Z,46.56
2023-05-08T11:56:57.024Z,45.47
2023-05-08T11:59:24.575Z,45.59
2023-05-08T12:04:21.954Z,46.45
2023-05-08T12:06:51.057Z,45.69
2023-05-08T12:09:20.099Z,46.61
2023-05-08T12:11:51.200Z,46.65
2023-05-08T12:14:19.279Z,45.04
2023-05-08T12:16:47.205Z,44.23
2023-05-08T12:19:15.038Z,43.91
2023-05-08T12:21:49.116Z,44.85
2023-05-08T12:24:19.623Z,44.15
2023-05-08T12:26:55.732Z,43.94
2023-05-08T12:29:23.491Z,43.45
2023-05-08T12:31:51.535Z,43.64
2023-05-08T12:34:20.695Z,43.67
2023-05-08T12:36:48.251Z,43.54
2023-05-08T12:39:17.798Z,44.42
2023-05-08T12:41:51.298Z,44.12
2023-05-08T12:44:22.339Z,43.86
2023-05-08T12:46:55.481Z,44.58
2023-05-08T12:49:31.698Z,43.71
2023-05-08T12:52:12.507Z,44.51
2023-05-08T12:54:46.261Z,44.95
2023-05-08T12:57:19.120Z,44.42
2023-05-08T12:59:47.244Z,44.51
2023-05-08T13:02:23.147Z,45.13
2023-05-08T13:04:56.987Z,44.64
2023-05-08T13:07:24.757Z,43.72
2023-05-08T13:10:02.520Z,44.20
2023-05-08T13:12:32.177Z,44.24
2023-05-08T13:15:00.459Z,44.23
2023-05-08T13:17:28.071Z,44.33
2023-05-08T13:19:55.416Z,44.08
2023-05-08T13:22:26.151Z,43.98
2023-05-08T13:24:55.655Z,43.82
2023-05-08T13:27:23.466Z,43.79
2023-05-08T13:29:51.051Z,42.94
2023-05-08T13:32:19.046Z,42.18
2023-05-08T13:34:50.429Z,42.94
2023-05-08T13:37:16.244Z,43.30
2023-05-08T13:39:46.309Z,44.42
2023-05-08T13:42:13.919Z,44.19
2023-05-08T13:44:41.396Z,43.62
2023-05-08T13:47:10.298Z,44.01
2023-05-08T13:49:37.698Z,44.14
2023-05-08T13:52:05.614Z,44.94
2023-05-08T13:54:34.306Z,44.39
2023-05-08T13:57:02.858Z,44.47
2023-05-08T13:59:30.955Z,45.05
2023-05-08T14:02:06.981Z,45.00
2023-05-08T14:04:36.528Z,45.21
2023-05-08T14:07:04.242Z,45.13
2023-05-08T14:09:33.243Z,45.41
2023-05-08T14:12:00.862Z,45.64
2023-05-08T14:14:28.424Z,45.78
2023-05-08T14:16:56.534Z,45.59
2023-05-08T14:19:27.179Z,45.46
2023-05-08T14:21:55.281Z,44.63
2023-05-08T14:24:24.772Z,44.07
2023-05-08T14:26:52.365Z,44.68
2023-05-08T14:29:20.054Z,44.37
2023-05-08T14:31:47.727Z,45.02
2023-05-08T14:34:15.180Z,44.84
2023-05-08T14:36:42.824Z,45.27
2023-05-08T14:39:11.262Z,45.70
2023-05-08T14:41:39.242Z,45.62
2023-05-08T14:44:07.177Z,45.95
2023-05-08T14:46:35.161Z,46.13
2023-05-08T14:49:02.960Z,46.50
2023-05-08T14:51:32.430Z,46.08
2023-05-08T14:54:01.983Z,46.03
2023-05-08T14:59:01.132Z,46.47
2023-05-08T15:01:30.124Z,47.15
2023-05-08T15:03:58.189Z,47.35
2023-05-08T15:06:27.737Z,47.17
2023-05-08T15:08:57.468Z,47.16
2023-05-08T15:11:25.547Z,47.55
2023-05-08T15:13:53.254Z,46.90
2023-05-08T15:16:20.978Z,47.98
2023-05-08T15:18:48.544Z,46.62
2023-05-08T15:21:16.380Z,46.85
2023-05-08T15:23:44.371Z,46.72
2023-05-08T15:26:12.217Z,47.02
2023-05-08T15:28:45.310Z,46.80
2023-05-08T15:31:13.294Z,47.07
2023-05-08T15:33:43.131Z,46.71
2023-05-08T15:36:13.596Z,46.98
2023-05-08T15:38:43.222Z,45.92
2023-05-08T15:41:14.647Z,45.98
2023-05-08T15:43:41.421Z,46.58
2023-05-08T15:46:10.647Z,45.98
2023-05-08T15:48:38.216Z,46.21
2023-05-08T15:51:05.888Z,45.68
2023-05-08T15:53:34.030Z,46.13
2023-05-08T15:56:01.898Z,46.24
2023-05-08T15:58:29.450Z,45.45
2023-05-08T16:00:57.898Z,46.01
2023-05-08T16:03:27.355Z,46.43
2023-05-08T16:05:54.796Z,46.87
2023-05-08T16:08:28.712Z,46.42
2023-05-08T16:10:59.777Z,45.72
2023-05-08T16:13:28.640Z,46.37
2023-05-08T16:16:05.910Z,46.08
2023-05-08T16:18:36.896Z,46.45
2023-05-08T16:21:10.509Z,47.00
2023-05-08T16:23:38.323Z,47.23
2023-05-08T16:26:05.865Z,47.35
2023-05-08T16:28:33.969Z,47.35
2023-05-08T16:31:06.473Z,47.17
2023-05-08T16:37:06.592Z,47.67
2023-05-08T16:39:34.640Z,48.00
2023-05-08T16:42:02.587Z,47.34
2023-05-08T16:44:30.154Z,47.55
2023-05-08T16:46:57.917Z,48.23
2023-05-08T16:49:36.663Z,48.08
2023-05-08T16:52:04.477Z,48.17
2023-05-08T16:57:26.929Z,48.37
2023-05-08T16:59:54.828Z,48.41
2023-05-08T17:02:22.808Z,48.15
2023-05-08T17:04:50.835Z,48.28
2023-05-08T17:07:18.444Z,48.44
2023-05-08T17:09:50.622Z,47.72
2023-05-08T17:12:18.240Z,47.68
2023-05-08T17:14:45.767Z,48.08
2023-05-08T17:18:26.254Z,47.70
2023-05-08T17:20:14.217Z,48.09
2023-05-08T17:22:42.079Z,48.19
2023-05-08T17:25:10.840Z,47.66
2023-05-08T17:27:41.992Z,48.16
2023-05-08T17:30:14.179Z,48.48
2023-05-08T17:32:42.536Z,48.42
2023-05-08T17:35:10.963Z,48.18
2023-05-08T17:37:38.602Z,48.28
2023-05-08T17:40:09.707Z,48.43
2023-05-08T17:42:37.342Z,48.75
2023-05-08T17:45:06.156Z,49.20
2023-05-08T17:47:34.194Z,49.57
2023-05-08T17:50:02.074Z,49.76
2023-05-08T17:52:29.770Z,49.25
2023-05-08T17:54:57.896Z,49.54
2023-05-08T17:57:26.029Z,49.67
2023-05-08T17:59:57.866Z,50.25
2023-05-08T18:02:26.152Z,50.07
2023-05-08T18:04:55.882Z,50.42
2023-05-08T18:07:23.679Z,50.39
2023-05-08T18:09:51.937Z,50.33
2023-05-08T18:12:19.878Z,50.25
2023-05-08T18:14:48.099Z,50.40
2023-05-08T18:17:17.652Z,50.45
2023-05-08T18:19:52.140Z,50.78
2023-05-08T18:22:20.037Z,50.77
2023-05-08T18:24:49.486Z,51.00
2023-05-08T18:27:17.405Z,51.50
2023-05-08T18:29:45.211Z,51.24
2023-05-08T18:32:12.850Z,51.08
2023-05-08T18:34:40.671Z,51.15
2023-05-08T18:37:08.308Z,51.24
2023-05-08T18:39:36.274Z,51.20
2023-05-08T18:42:03.914Z,51.45
2023-05-08T18:44:31.890Z,51.39
2023-05-08T18:47:01.318Z,51.71
2023-05-08T18:49:30.230Z,51.77
2023-05-08T18:51:57.986Z,51.93
2023-05-08T18:54:26.478Z,52.04
2023-05-08T18:56:54.511Z,52.28
2023-05-08T18:59:25.061Z,52.44
2023-05-08T19:01:52.446Z,52.65
2023-05-08T19:04:20.070Z,52.69
2023-05-08T19:06:47.622Z,52.99
2023-05-08T19:09:15.300Z,53.48
2023-05-08T19:11:42.708Z,53.38
2023-05-08T19:14:10.677Z,53.35
2023-05-08T19:16:38.328Z,53.75
2023-05-08T19:19:06.549Z,54.23
2023-05-08T19:21:34.671Z,54.00
2023-05-08T19:24:02.499Z,54.03
2023-05-08T19:26:30.038Z,54.15
2023-05-08T19:29:05.193Z,54.34
2023-05-08T19:31:32.897Z,53.91
2023-05-08T19:34:00.656Z,53.97
2023-05-08T19:36:28.378Z,54.16
2023-05-08T19:38:56.384Z,53.93
2023-05-08T19:41:24.949Z,53.89
2023-05-08T19:43:52.701Z,53.91
2023-05-08T19:46:20.719Z,54.38
2023-05-08T19:48:50.310Z,54.55
2023-05-08T19:51:20.444Z,54.78
2023-05-08T19:53:48.725Z,55.63
2023-05-08T19:56:16.150Z,55.55
2023-05-08T19:58:43.525Z,55.85
2023-05-08T20:01:11.367Z,56.34
2023-05-08T20:03:38.910Z,56.11
2023-05-08T20:06:06.830Z,56.37
2023-05-08T20:08:34.535Z,56.64
2023-05-08T20:11:03.465Z,56.80
2023-05-08T20:13:31.277Z,56.80
2023-05-08T20:15:59.026Z,56.76
2023-05-08T20:18:26.653Z,56.79
2023-05-08T20:20:54.744Z,56.81
2023-05-08T20:23:22.765Z,56.91
2023-05-08T20:25:53.038Z,56.99
2023-05-08T20:28:22.799Z,57.18
2023-05-08T20:30:50.932Z,56.98
2023-05-08T20:33:21.740Z,57.13
2023-05-08T20:35:49.432Z,57.10
2023-05-08T20:38:17.138Z,57.17
2023-05-08T20:40:45.190Z,57.11
2023-05-08T20:43:13.031Z,57.14
2023-05-08T20:45:40.662Z,57.03
2023-05-08T20:48:09.716Z,57.14
2023-05-08T20:50:37.464Z,57.22
2023-05-08T20:53:04.998Z,57.19
2023-05-08T20:55:32.542Z,57.08
2023-05-08T20:58:00.182Z,56.87
2023-05-08T21:00:27.883Z,56.85
2023-05-08T21:02:55.776Z,57.01
2023-05-08T21:05:23.419Z,57.14
2023-05-08T21:07:54.593Z,57.09
2023-05-08T21:10:26.100Z,57.20
2023-05-08T21:12:53.955Z,57.20
2023-05-08T21:15:21.877Z,57.21
2023-05-08T21:17:50.138Z,57.29
2023-05-08T21:20:17.980Z,57.32
2023-05-08T21:22:47.366Z,57.50
2023-05-08T21:25:16.276Z,57.54
2023-05-08T21:27:44.867Z,57.66
2023-05-08T21:30:14.743Z,57.81
2023-05-08T21:32:43.757Z,57.81
2023-05-08T21:35:12.925Z,57.79
2023-05-08T21:37:41.312Z,57.74
2023-05-08T21:40:09.727Z,57.68
2023-05-08T21:42:38.783Z,57.70
2023-05-08T21:45:06.919Z,57.81
2023-05-08T21:47:34.884Z,58.00
2023-05-08T21:50:03.376Z,57.85
2023-05-08T21:52:31.349Z,57.88
2023-05-08T21:55:00.899Z,57.79
2023-05-08T21:57:28.625Z,57.94
2023-05-08T21:59:56.285Z,58.11
2023-05-08T22:02:24.177Z,58.27
2023-05-08T22:04:52.012Z,58.30
2023-05-08T22:07:20.939Z,58.31
2023-05-08T22:09:48.473Z,58.44
2023-05-08T22:12:16.015Z,58.33
2023-05-08T22:14:44.087Z,58.31
2023-05-08T22:17:11.720Z,58.55
2023-05-08T22:19:39.331Z,58.63
2023-05-08T22:22:07.192Z,58.58
2023-05-08T22:24:34.988Z,58.71
2023-05-08T22:27:02.629Z,58.72
2023-05-08T22:29:30.409Z,58.51
2023-05-08T22:31:57.874Z,58.55
2023-05-08T22:34:26.567Z,58.54
2023-05-08T22:36:54.062Z,58.51
2023-05-08T22:39:21.676Z,58.52
2023-05-08T22:41:49.893Z,58.56
2023-05-08T22:44:17.893Z,58.61
2023-05-08T22:46:45.801Z,58.69
2023-05-08T22:49:13.570Z,58.80
2023-05-08T22:51:41.214Z,58.77
2023-05-08T22:54:08.896Z,58.83
2023-05-08T22:56:37.588Z,58.96
2023-05-08T22:59:06.125Z,59.00
2023-05-08T23:01:33.798Z,59.07
2023-05-08T23:04:01.331Z,59.16
2023-05-08T23:06:29.034Z,59.26
2023-05-08T23:08:56.614Z,59.36
2023-05-08T23:11:28.221Z,59.44
2023-05-08T23:13:55.762Z,59.42
2023-05-08T23:16:23.087Z,59.53
2023-05-08T23:18:50.904Z,59.62
2023-05-08T23:21:18.471Z,59.65
2023-05-08T23:23:47.530Z,59.60
2023-05-08T23:26:15.778Z,59.70
2023-05-08T23:28:43.420Z,59.70
2023-05-08T23:31:11.366Z,59.62
2023-05-08T23:33:38.878Z,59.65
2023-05-08T23:36:07.533Z,59.54
2023-05-08T23:38:35.420Z,59.80
2023-05-08T23:41:02.905Z,60.04
2023-05-08T23:43:30.746Z,60.34
2023-05-08T23:45:58.575Z,60.38
2023-05-08T23:48:26.499Z,60.24
2023-05-08T23:50:54.126Z,60.53
2023-05-08T23:53:21.564Z,60.60
2023-05-08T23:55:50.438Z,61.08
2023-05-08T23:58:18.485Z,61.38
